createdAt,value
2022-10-05T00:03:20.960Z,8.83
2022-10-05T00:07:24.431Z,8.90
2022-10-05T00:11:26.548Z,8.89
2022-10-05T00:15:29.331Z,8.93
2022-10-05T00:19:34.524Z,8.98
2022-10-05T00:23:36.299Z,9.02
2022-10-05T00:27:38.928Z,8.88
2022-10-05T00:31:40.625Z,8.93
2022-10-05T00:35:42.670Z,8.89
2022-10-05T00:39:44.406Z,8.89
2022-10-05T00:44:03.877Z,8.79
2022-10-05T00:48:41.554Z,8.77
2022-10-05T00:53:18.812Z,8.70
2022-10-05T00:58:06.851Z,8.58
2022-10-05T01:02:35.881Z,8.63
2022-10-05T01:07:00.199Z,8.57
2022-10-05T01:11:37.636Z,8.63
2022-10-05T01:15:47.545Z,8.52
2022-10-05T01:20:14.527Z,8.59
2022-10-05T01:24:43.892Z,8.57
2022-10-05T01:29:05.195Z,8.62
2022-10-05T01:33:21.432Z,8.51
2022-10-05T01:37:58.745Z,8.58
2022-10-05T01:42:19.764Z,8.46
2022-10-05T01:46:31.258Z,8.61
2022-10-05T01:50:52.362Z,8.75
2022-10-05T01:55:06.099Z,8.69
2022-10-05T01:59:18.849Z,8.78
2022-10-05T02:03:27.109Z,8.82
2022-10-05T02:08:14.091Z,8.78
2022-10-05T02:12:21.499Z,8.72
2022-10-05T02:16:31.929Z,8.62
2022-10-05T02:20:37.582Z,8.47
2022-10-05T02:24:48.197Z,8.46
2022-10-05T02:28:58.637Z,8.39
2022-10-05T02:33:06.807Z,8.27
2022-10-05T02:37:46.406Z,8.29
2022-10-05T02:42:03.169Z,8.31
2022-10-05T02:46:26.742Z,8.33
2022-10-05T02:50:47.485Z,8.24
2022-10-05T02:55:19.317Z,8.13
2022-10-05T02:59:38.477Z,8.08
2022-10-05T03:03:47.422Z,8.05
2022-10-05T03:07:57.992Z,8.10
2022-10-05T03:12:30.500Z,8.08
2022-10-05T03:16:51.904Z,8.06
2022-10-05T03:21:23.322Z,8.01
2022-10-05T03:25:40.846Z,8.05
2022-10-05T03:30:03.348Z,8.08
2022-10-05T03:34:41.872Z,8.15
2022-10-05T03:38:54.481Z,8.19
2022-10-05T03:43:19.190Z,8.20
2022-10-05T03:47:35.947Z,8.15
2022-10-05T03:51:43.353Z,8.23
2022-10-05T03:55:51.878Z,8.22
2022-10-05T04:00:02.732Z,8.18
2022-10-05T04:04:39.759Z,8.22
2022-10-05T04:08:56.227Z,8.21
2022-10-05T04:13:40.235Z,8.28
2022-10-05T04:18:00.709Z,8.21
2022-10-05T04:22:22.527Z,8.13
2022-10-05T04:26:37.243Z,8.14
2022-10-05T04:31:07.284Z,8.07
2022-10-05T04:35:53.709Z,8.07
2022-10-05T04:40:14.613Z,8.13
2022-10-05T04:44:35.528Z,8.07
2022-10-05T04:48:44.939Z,7.95
2022-10-05T04:53:05.093Z,7.93
2022-10-05T04:57:13.583Z,7.91
2022-10-05T05:01:51.355Z,7.83
2022-10-05T05:06:17.992Z,7.85
2022-10-05T05:10:48.971Z,7.93
2022-10-05T05:15:01.787Z,7.96
2022-10-05T05:19:28.685Z,8.06
2022-10-05T05:23:44.368Z,8.16
2022-10-05T05:28:23.393Z,8.22
2022-10-05T05:32:52.848Z,8.32
2022-10-05T05:37:01.157Z,8.43
2022-10-05T05:41:40.168Z,8.61
2022-10-05T05:45:58.238Z,8.75
2022-10-05T05:50:07.805Z,8.76
2022-10-05T05:54:15.557Z,8.77
2022-10-05T05:58:38.476Z,8.91
2022-10-05T06:03:00.849Z,9.02
2022-10-05T06:07:05.877Z,9.13
2022-10-05T06:11:18.992Z,9.23
2022-10-05T06:15:39.281Z,9.36
2022-10-05T06:19:44.099Z,9.48
2022-10-05T06:23:54.151Z,9.57
2022-10-05T06:28:03.751Z,9.63
2022-10-05T06:32:20.223Z,9.74
2022-10-05T06:36:40.391Z,9.86
2022-10-05T06:41:20.321Z,10.10
2022-10-05T06:45:45.927Z,10.28
2022-10-05T06:50:21.479Z,10.56
2022-10-05T06:54:45.961Z,10.69
2022-10-05T06:59:17.151Z,10.74
2022-10-05T07:03:27.178Z,10.89
2022-10-05T07:07:35.453Z,10.98
2022-10-05T07:12:11.538Z,11.05
2022-10-05T07:16:45.520Z,11.18
2022-10-05T07:20:57.865Z,11.20
2022-10-05T07:25:26.629Z,11.38
2022-10-05T07:29:51.555Z,11.46
2022-10-05T07:34:04.856Z,11.45
2022-10-05T07:38:15.435Z,11.71
2022-10-05T07:42:29.375Z,11.88
2022-10-05T07:46:47.766Z,12.17
2022-10-05T07:51:15.856Z,12.34
2022-10-05T07:55:20.769Z,12.44
2022-10-05T07:59:34.385Z,12.54
2022-10-05T08:03:55.740Z,12.59
2022-10-05T08:08:19.799Z,12.67
2022-10-05T08:12:31.710Z,12.79
2022-10-05T08:16:38.079Z,13.17
2022-10-05T08:20:45.852Z,13.14
2022-10-05T08:25:09.912Z,13.11
2022-10-05T08:29:45.210Z,13.18
2022-10-05T08:34:22.069Z,13.90
2022-10-05T08:38:31.639Z,13.98
2022-10-05T08:42:36.610Z,13.82
2022-10-05T08:47:18.627Z,13.83
2022-10-05T08:51:48.625Z,13.96
2022-10-05T08:56:28.500Z,14.08
2022-10-05T09:00:37.138Z,14.14
2022-10-05T09:05:16.459Z,14.15
2022-10-05T09:09:45.200Z,14.29
2022-10-05T09:13:58.844Z,14.29
2022-10-05T09:18:37.907Z,14.38
2022-10-05T09:22:58.154Z,14.65
2022-10-05T09:27:23.886Z,14.79
2022-10-05T09:31:56.992Z,14.68
2022-10-05T09:36:12.418Z,14.84
2022-10-05T09:40:47.451Z,14.92
2022-10-05T09:45:20.460Z,15.10
2022-10-05T09:49:46.515Z,15.03
2022-10-05T09:54:19.986Z,15.26
2022-10-05T09:59:07.564Z,15.52
2022-10-05T10:03:44.570Z,15.61
2022-10-05T10:08:15.125Z,15.55
2022-10-05T10:12:33.271Z,15.93
2022-10-05T10:17:19.700Z,15.94
2022-10-05T10:21:42.184Z,15.92
2022-10-05T10:26:06.469Z,15.88
2022-10-05T10:30:32.034Z,16.04
2022-10-05T10:34:37.844Z,16.51
2022-10-05T10:39:06.298Z,16.66
2022-10-05T10:43:26.568Z,16.46
2022-10-05T10:47:50.585Z,16.35
2022-10-05T10:52:17.207Z,16.27
2022-10-05T11:01:32.323Z,16.98
2022-10-05T11:05:58.162Z,17.14
2022-10-05T11:10:26.096Z,16.92
2022-10-05T11:14:46.093Z,16.83
2022-10-05T11:19:05.776Z,17.02
2022-10-05T11:23:49.690Z,17.00
2022-10-05T11:28:04.021Z,17.14
2022-10-05T11:32:24.289Z,17.09
2022-10-05T11:36:58.301Z,17.23
2022-10-05T11:41:47.083Z,17.19
2022-10-05T11:46:27.793Z,17.43
2022-10-05T11:50:40.072Z,17.47
2022-10-05T11:55:17.183Z,17.81
2022-10-05T11:59:34.491Z,17.91
2022-10-05T12:03:53.677Z,17.62
2022-10-05T12:08:14.169Z,17.68
2022-10-05T12:12:27.080Z,17.74
2022-10-05T12:16:50.636Z,17.71
2022-10-05T12:20:59.168Z,17.62
2022-10-05T12:25:07.177Z,17.62
2022-10-05T12:29:11.599Z,17.56
2022-10-05T12:33:29.196Z,17.56
2022-10-05T12:37:53.218Z,17.72
2022-10-05T12:42:18.388Z,17.70
2022-10-05T12:47:11.575Z,17.89
2022-10-05T12:51:45.144Z,17.54
2022-10-05T12:55:58.403Z,17.39
2022-10-05T13:00:09.864Z,17.31
2022-10-05T13:04:49.210Z,17.27
2022-10-05T13:09:00.279Z,17.29
2022-10-05T13:13:26.055Z,17.44
2022-10-05T13:17:50.029Z,17.42
2022-10-05T13:22:09.544Z,17.54
2022-10-05T13:26:19.517Z,17.57
2022-10-05T13:30:21.862Z,17.40
2022-10-05T13:34:54.467Z,17.20
2022-10-05T13:39:09.899Z,17.09
2022-10-05T13:43:29.801Z,17.08
2022-10-05T13:47:39.005Z,17.17
2022-10-05T13:52:04.111Z,17.10
2022-10-05T13:56:16.318Z,16.97
2022-10-05T14:00:26.532Z,17.00
2022-10-05T14:04:42.222Z,16.86
2022-10-05T14:08:52.033Z,16.93
2022-10-05T14:12:54.759Z,16.82
2022-10-05T14:16:59.454Z,16.77
2022-10-05T14:21:08.498Z,16.68
2022-10-05T14:25:10.447Z,16.62
2022-10-05T14:29:14.960Z,16.57
2022-10-05T14:33:17.117Z,16.42
2022-10-05T14:37:25.263Z,16.54
2022-10-05T14:41:29.064Z,16.45
2022-10-05T14:45:32.653Z,16.29
2022-10-05T14:49:37.065Z,16.36
2022-10-05T14:53:45.563Z,16.32
2022-10-05T14:58:30.724Z,16.13
2022-10-05T15:02:45.012Z,16.07
2022-10-05T15:06:58.534Z,16.01
2022-10-05T15:11:23.869Z,15.83
2022-10-05T15:15:42.524Z,15.79
2022-10-05T15:20:09.587Z,15.70
2022-10-05T15:24:17.691Z,15.68
2022-10-05T15:28:28.466Z,15.56
2022-10-05T15:33:07.520Z,15.60
2022-10-05T15:37:21.167Z,15.51
2022-10-05T15:41:45.743Z,15.34
2022-10-05T15:46:13.956Z,15.25
2022-10-05T15:50:29.820Z,15.24
2022-10-05T15:55:05.992Z,15.23
2022-10-05T15:59:25.888Z,15.15
2022-10-05T16:04:01.165Z,15.11
2022-10-05T16:08:22.021Z,15.00
2022-10-05T16:12:42.720Z,14.95
2022-10-05T16:16:59.621Z,14.90
2022-10-05T16:21:11.956Z,14.86
2022-10-05T16:25:44.009Z,14.75
2022-10-05T16:29:59.992Z,14.74
2022-10-05T16:34:24.744Z,14.77
2022-10-05T16:38:52.782Z,14.60
2022-10-05T16:43:15.323Z,14.60
2022-10-05T16:47:34.632Z,14.56
2022-10-05T16:51:59.113Z,14.55
2022-10-05T16:56:05.208Z,14.52
2022-10-05T17:00:19.384Z,14.42
2022-10-05T17:04:42.800Z,14.35
2022-10-05T17:09:14.422Z,14.30
2022-10-05T17:13:28.969Z,14.28
2022-10-05T17:18:02.071Z,14.34
2022-10-05T17:22:39.593Z,14.36
2022-10-05T17:27:17.841Z,14.35
2022-10-05T17:31:23.066Z,14.35
2022-10-05T17:35:56.864Z,14.18
2022-10-05T17:39:59.050Z,14.13
2022-10-05T17:44:06.770Z,14.02
2022-10-05T17:48:13.087Z,13.99
2022-10-05T17:52:43.855Z,13.93
2022-10-05T17:56:48.578Z,13.89
2022-10-05T18:01:00.642Z,13.95
2022-10-05T18:05:16.114Z,13.95
2022-10-05T18:09:30.768Z,13.98
2022-10-05T18:13:41.565Z,13.96
2022-10-05T18:17:51.507Z,13.93
2022-10-05T18:22:03.438Z,13.90
2022-10-05T18:26:07.999Z,13.87
2022-10-05T18:30:27.282Z,13.87
2022-10-05T18:34:50.778Z,13.78
2022-10-05T18:39:26.934Z,13.68
2022-10-05T18:43:47.501Z,13.67
2022-10-05T18:48:07.762Z,13.64
2022-10-05T18:52:29.390Z,13.60
2022-10-05T18:56:39.909Z,13.55
2022-10-05T19:01:00.363Z,13.61
2022-10-05T19:05:42.598Z,13.59
2022-10-05T19:10:03.558Z,13.71
2022-10-05T19:14:45.365Z,13.63
2022-10-05T19:19:29.319Z,13.52
2022-10-05T19:23:49.180Z,13.49
2022-10-05T19:28:04.095Z,13.45
2022-10-05T19:32:18.486Z,13.42
2022-10-05T19:36:44.391Z,13.50
2022-10-05T19:41:00.126Z,13.41
2022-10-05T19:45:22.633Z,13.39
2022-10-05T19:49:56.958Z,13.17
2022-10-05T19:54:12.535Z,13.06
2022-10-05T19:58:32.397Z,13.00
2022-10-05T20:02:37.522Z,12.89
2022-10-05T20:06:43.305Z,12.78
2022-10-05T20:11:03.008Z,12.81
2022-10-05T20:15:26.386Z,12.72
2022-10-05T20:19:49.555Z,12.68
2022-10-05T20:24:09.906Z,12.55
2022-10-05T20:28:11.714Z,12.48
2022-10-05T20:32:17.951Z,12.50
2022-10-05T20:36:19.883Z,12.48
2022-10-05T20:40:21.962Z,12.43
2022-10-05T20:44:23.772Z,12.39
2022-10-05T20:48:26.948Z,12.32
2022-10-05T20:52:29.389Z,12.32
2022-10-05T20:56:31.410Z,12.31
2022-10-05T21:00:53.076Z,12.31
2022-10-05T21:04:55.121Z,12.28
2022-10-05T21:08:56.803Z,12.24
2022-10-05T21:13:01.548Z,12.19
2022-10-05T21:17:05.014Z,12.18
2022-10-05T21:21:07.443Z,12.12
2022-10-05T21:25:09.314Z,11.95
2022-10-05T21:29:13.150Z,11.90
2022-10-05T21:33:14.821Z,11.79
2022-10-05T21:37:16.696Z,11.75
2022-10-05T21:41:19.136Z,11.67
2022-10-05T21:45:21.058Z,11.56
2022-10-05T21:49:23.265Z,11.52
2022-10-05T21:53:29.656Z,11.35
2022-10-05T21:57:31.975Z,11.28
2022-10-05T22:01:35.925Z,11.22
2022-10-05T22:05:37.978Z,11.10
2022-10-05T22:09:39.884Z,10.99
2022-10-05T22:14:06.171Z,10.89
2022-10-05T22:18:15.494Z,10.80
2022-10-05T22:22:17.464Z,10.66
2022-10-05T22:26:22.424Z,10.56
2022-10-05T22:30:24.142Z,10.61
2022-10-05T22:34:26.211Z,10.56
2022-10-05T22:38:30.320Z,10.52
2022-10-05T22:42:32.710Z,10.49
2022-10-05T22:46:35.283Z,10.47
2022-10-05T22:50:37.111Z,10.50
2022-10-05T22:54:38.758Z,10.46
2022-10-05T22:58:41.576Z,10.54
2022-10-05T23:02:43.877Z,10.56
2022-10-05T23:06:45.808Z,10.55
2022-10-05T23:10:47.466Z,10.59
2022-10-05T23:14:49.348Z,10.54
2022-10-05T23:18:52.740Z,10.59
2022-10-05T23:22:54.556Z,10.48
2022-10-05T23:26:56.207Z,10.57
2022-10-05T23:31:03.412Z,10.51
2022-10-05T23:35:06.286Z,10.44
2022-10-05T23:39:08.123Z,10.40
2022-10-05T23:43:09.883Z,10.34
2022-10-05T23:47:11.823Z,10.28
2022-10-05T23:51:14.409Z,10.05
2022-10-05T23:55:16.453Z,9.98
2022-10-05T23:59:18.115Z,10.04
